createdAt,value
2018-07-22T00:02:17.797Z,95.75
2018-07-22T00:04:46.401Z,95.95
2018-07-22T00:07:15.032Z,95.51
2018-07-22T00:09:43.701Z,94.15
2018-07-22T00:12:12.773Z,93.80
2018-07-22T00:14:41.402Z,94.30
2018-07-22T00:17:10.655Z,94.67
2018-07-22T00:19:39.457Z,94.85
2018-07-22T00:22:08.116Z,94.64
2018-07-22T00:24:36.779Z,94.39
2018-07-22T00:27:05.691Z,94.39
2018-07-22T00:29:34.357Z,94.78
2018-07-22T00:32:03.021Z,94.84
2018-07-22T00:34:31.646Z,94.21
2018-07-22T00:37:00.335Z,94.43
2018-07-22T00:39:29.124Z,94.15
2018-07-22T00:41:57.813Z,94.76
2018-07-22T00:44:26.472Z,94.49
2018-07-22T00:46:57.982Z,95.03
2018-07-22T00:49:26.609Z,95.34
2018-07-22T00:51:55.254Z,95.18
2018-07-22T00:54:23.923Z,94.87
2018-07-22T00:56:53.777Z,95.53
2018-07-22T00:59:22.530Z,95.08
2018-07-22T01:01:51.183Z,95.26
2018-07-22T01:04:19.917Z,95.76
2018-07-22T01:06:48.760Z,95.70
2018-07-22T01:09:17.443Z,95.44
2018-07-22T01:11:46.053Z,95.94
2018-07-22T01:14:14.693Z,96.00
2018-07-22T01:16:46.254Z,95.42
2018-07-22T01:19:14.925Z,95.61
2018-07-22T01:21:43.549Z,96.28
2018-07-22T01:24:12.161Z,96.48
2018-07-22T01:26:40.795Z,96.56
2018-07-22T01:29:09.543Z,96.21
2018-07-22T01:31:38.234Z,96.20
2018-07-22T01:34:07.489Z,96.53
2018-07-22T01:36:36.092Z,96.10
2018-07-22T01:39:06.709Z,96.24
2018-07-22T01:41:35.407Z,94.93
2018-07-22T01:44:03.998Z,94.74
2018-07-22T01:46:32.619Z,92.58
2018-07-22T01:49:01.238Z,92.37
2018-07-22T01:51:29.978Z,91.52
2018-07-22T01:53:58.728Z,90.44
2018-07-22T01:56:33.719Z,90.75
2018-07-22T01:59:03.538Z,90.92
2018-07-22T02:01:32.306Z,91.66
2018-07-22T02:04:01.074Z,91.92
2018-07-22T02:06:29.810Z,92.49
2018-07-22T02:08:58.506Z,92.96
2018-07-22T02:11:27.433Z,93.08
2018-07-22T02:13:56.045Z,92.48
2018-07-22T02:16:24.655Z,90.03
2018-07-22T02:18:53.260Z,89.19
2018-07-22T02:21:21.877Z,89.11
2018-07-22T02:23:50.601Z,89.33
2018-07-22T02:26:19.277Z,88.65
2018-07-22T02:28:47.890Z,89.98
2018-07-22T02:31:16.501Z,89.67
2018-07-22T02:33:45.154Z,89.61
2018-07-22T02:36:13.793Z,89.27
2018-07-22T02:38:42.478Z,89.33
2018-07-22T02:41:11.107Z,88.61
2018-07-22T02:43:39.741Z,88.09
2018-07-22T02:46:08.382Z,88.74
2018-07-22T02:48:37.075Z,87.25
2018-07-22T02:51:05.654Z,87.48
2018-07-22T02:53:34.336Z,87.32
2018-07-22T02:56:03.055Z,87.91
2018-07-22T02:58:31.711Z,88.22
2018-07-22T03:01:00.301Z,87.10
2018-07-22T03:03:29.064Z,87.01
2018-07-22T03:05:57.701Z,86.62
2018-07-22T03:08:26.355Z,87.32
2018-07-22T03:10:55.033Z,87.06
2018-07-22T03:13:23.625Z,86.25
2018-07-22T03:15:52.258Z,85.67
2018-07-22T03:18:20.846Z,86.57
2018-07-22T03:20:49.480Z,85.81
2018-07-22T03:23:18.277Z,86.37
2018-07-22T03:25:46.922Z,86.40
2018-07-22T03:28:15.538Z,85.66
2018-07-22T03:30:44.168Z,85.57
2018-07-22T03:33:12.807Z,85.54
2018-07-22T03:35:41.493Z,85.85
2018-07-22T03:38:10.138Z,86.25
2018-07-22T03:40:38.760Z,86.48
2018-07-22T03:43:07.451Z,86.48
2018-07-22T03:45:36.078Z,86.02
2018-07-22T03:48:04.758Z,86.10
2018-07-22T03:50:33.345Z,85.89
2018-07-22T03:53:02.017Z,86.34
2018-07-22T03:55:30.605Z,86.28
2018-07-22T03:57:59.298Z,85.77
2018-07-22T04:00:27.944Z,86.34
2018-07-22T04:02:56.750Z,85.88
2018-07-22T04:05:25.376Z,85.80
2018-07-22T04:07:54.018Z,85.33
2018-07-22T04:10:22.631Z,84.83
2018-07-22T04:12:51.362Z,84.42
2018-07-22T04:15:20.095Z,84.04
2018-07-22T04:17:48.729Z,84.34
2018-07-22T04:20:17.346Z,83.95
2018-07-22T04:22:45.946Z,84.00
2018-07-22T04:25:14.634Z,84.32
2018-07-22T04:27:43.300Z,83.92
2018-07-22T04:30:11.968Z,83.80
2018-07-22T04:32:40.561Z,82.92
2018-07-22T04:35:09.149Z,82.39
2018-07-22T04:37:37.744Z,82.27
2018-07-22T04:40:06.345Z,81.96
2018-07-22T04:42:34.941Z,81.66
2018-07-22T04:45:03.644Z,80.98
2018-07-22T04:47:32.252Z,80.64
2018-07-22T04:50:00.849Z,80.67
2018-07-22T04:52:29.658Z,80.21
2018-07-22T04:54:58.691Z,80.51
2018-07-22T04:57:27.331Z,80.11
2018-07-22T04:59:56.038Z,79.61
2018-07-22T05:02:24.691Z,79.44
2018-07-22T05:04:53.317Z,79.33
2018-07-22T05:07:22.050Z,79.28
2018-07-22T05:09:52.476Z,78.95
2018-07-22T05:12:21.117Z,78.06
2018-07-22T05:14:49.851Z,78.79
2018-07-22T05:17:26.772Z,77.87
2018-07-22T05:32:56.142Z,76.86
2018-07-22T05:35:25.090Z,76.67
2018-07-22T05:37:53.822Z,76.06
2018-07-22T05:40:22.537Z,75.79
2018-07-22T05:42:51.218Z,75.75
2018-07-22T05:45:20.195Z,74.79
2018-07-22T05:47:49.092Z,75.35
2018-07-22T05:50:17.881Z,75.64
2018-07-22T05:52:46.579Z,75.75
2018-07-22T05:55:15.321Z,75.73
2018-07-22T05:57:43.957Z,76.16
2018-07-22T06:00:12.675Z,75.47
2018-07-22T06:02:41.451Z,74.64
2018-07-22T06:05:10.243Z,74.71
2018-07-22T06:07:38.908Z,76.18
2018-07-22T06:10:08.015Z,76.58
2018-07-22T06:12:36.722Z,76.68
2018-07-22T06:15:07.139Z,76.52
2018-07-22T06:17:35.839Z,76.58
2018-07-22T06:20:05.058Z,75.54
2018-07-22T06:22:33.940Z,77.03
2018-07-22T06:25:02.698Z,77.18
2018-07-22T06:27:31.385Z,76.38
2018-07-22T06:30:00.055Z,76.20
2018-07-22T06:32:31.765Z,76.52
2018-07-22T06:35:04.197Z,76.85
2018-07-22T06:37:32.948Z,77.34
2018-07-22T06:40:01.697Z,76.41
2018-07-22T06:42:30.501Z,76.43
2018-07-22T06:44:59.263Z,76.46
2018-07-22T06:47:28.006Z,76.04
2018-07-22T06:49:56.714Z,75.17
2018-07-22T06:52:25.437Z,74.48
2018-07-22T06:54:54.214Z,74.26
2018-07-22T06:57:22.921Z,72.99
2018-07-22T06:59:51.926Z,72.87
2018-07-22T07:02:20.708Z,72.75
2018-07-22T07:04:49.484Z,71.44
2018-07-22T07:07:18.171Z,70.28
2018-07-22T07:09:46.893Z,71.00
2018-07-22T07:12:15.558Z,72.09
2018-07-22T07:14:45.087Z,72.37
2018-07-22T07:17:13.742Z,71.97
2018-07-22T07:19:42.431Z,70.99
2018-07-22T07:22:11.088Z,70.32
2018-07-22T07:24:39.846Z,70.03
2018-07-22T07:27:08.575Z,71.40
2018-07-22T07:29:37.209Z,72.42
2018-07-22T07:32:06.078Z,72.45
2018-07-22T07:34:34.771Z,72.87
2018-07-22T07:37:03.438Z,72.49
2018-07-22T07:39:32.099Z,72.03
2018-07-22T07:42:00.774Z,72.10
2018-07-22T07:44:29.402Z,71.68
2018-07-22T07:46:58.044Z,72.59
2018-07-22T07:49:26.765Z,72.88
2018-07-22T07:51:55.439Z,73.28
2018-07-22T07:54:24.135Z,73.57
2018-07-22T07:56:52.807Z,73.58
2018-07-22T07:59:21.660Z,73.55
2018-07-22T08:01:50.319Z,72.02
2018-07-22T08:04:19.210Z,71.50
2018-07-22T08:06:47.875Z,72.63
2018-07-22T08:09:16.465Z,71.77
2018-07-22T08:11:45.179Z,73.87
2018-07-22T08:14:13.800Z,74.24
2018-07-22T08:16:42.485Z,75.18
2018-07-22T08:19:11.201Z,76.00
2018-07-22T08:21:40.436Z,76.75
2018-07-22T08:24:09.244Z,77.45
2018-07-22T08:26:38.177Z,78.51
2018-07-22T08:29:31.687Z,78.98
2018-07-22T08:32:00.901Z,79.22
2018-07-22T08:34:29.649Z,78.66
2018-07-22T08:36:58.412Z,77.85
2018-07-22T08:39:28.323Z,79.42
2018-07-22T08:41:57.536Z,78.90
2018-07-22T08:44:26.218Z,77.46
2018-07-22T08:46:55.030Z,78.57
2018-07-22T08:49:23.753Z,78.62
2018-07-22T08:51:52.531Z,78.32
2018-07-22T08:54:21.216Z,77.27
2018-07-22T08:56:49.855Z,77.42
2018-07-22T08:59:18.488Z,76.37
2018-07-22T09:01:47.152Z,75.04
2018-07-22T09:04:15.861Z,74.15
2018-07-22T09:06:44.570Z,72.67
2018-07-22T09:09:13.617Z,71.45
2018-07-22T09:11:43.245Z,69.71
2018-07-22T09:14:11.943Z,70.03
2018-07-22T09:16:41.169Z,70.04
2018-07-22T09:19:09.854Z,68.96
2018-07-22T09:21:40.076Z,66.66
2018-07-22T09:24:09.454Z,65.39
2018-07-22T09:26:38.179Z,65.28
2018-07-22T09:29:06.866Z,64.66
2018-07-22T09:31:35.694Z,63.13
2018-07-22T09:34:04.380Z,61.88
2018-07-22T09:36:33.074Z,62.33
2018-07-22T09:39:01.775Z,62.57
2018-07-22T09:41:30.524Z,64.25
2018-07-22T09:43:59.390Z,64.69
2018-07-22T09:46:28.052Z,64.80
2018-07-22T09:48:56.733Z,63.88
2018-07-22T09:51:25.450Z,61.61
2018-07-22T09:53:54.239Z,62.57
2018-07-22T09:56:23.114Z,61.52
2018-07-22T09:58:51.833Z,62.42
2018-07-22T10:01:20.544Z,62.33
2018-07-22T10:03:50.186Z,62.53
2018-07-22T10:06:18.835Z,62.46
2018-07-22T10:08:47.537Z,61.84
2018-07-22T10:11:16.168Z,60.12
2018-07-22T10:13:44.921Z,58.76
2018-07-22T10:16:13.729Z,59.00
2018-07-22T10:18:42.584Z,60.39
2018-07-22T10:21:11.669Z,59.93
2018-07-22T10:23:40.645Z,61.14
2018-07-22T10:26:09.379Z,61.76
2018-07-22T10:28:38.106Z,61.52
2018-07-22T10:31:06.882Z,59.35
2018-07-22T10:33:35.699Z,59.68
2018-07-22T10:36:04.365Z,58.42
2018-07-22T10:38:33.098Z,57.52
2018-07-22T10:41:01.792Z,56.76
2018-07-22T10:43:30.675Z,56.70
2018-07-22T10:45:59.399Z,57.69
2018-07-22T10:48:28.117Z,55.90
2018-07-22T10:50:56.845Z,55.25
2018-07-22T10:53:25.633Z,56.09
2018-07-22T10:55:54.395Z,56.98
2018-07-22T10:58:23.161Z,56.24
2018-07-22T11:00:52.009Z,57.28
2018-07-22T11:03:20.772Z,55.60
2018-07-22T11:05:49.451Z,53.85
2018-07-22T11:08:18.826Z,54.60
2018-07-22T11:10:47.563Z,53.78
2018-07-22T11:13:16.260Z,51.69
2018-07-22T11:15:44.988Z,51.46
2018-07-22T11:18:13.673Z,50.63
2018-07-22T11:20:42.346Z,49.83
2018-07-22T11:23:11.005Z,49.48
2018-07-22T11:25:39.744Z,48.25
2018-07-22T11:28:08.463Z,48.42
2018-07-22T11:30:37.230Z,49.31
2018-07-22T11:33:05.959Z,50.65
2018-07-22T11:35:34.657Z,48.44
2018-07-22T11:38:03.509Z,48.48
2018-07-22T11:40:32.230Z,49.18
2018-07-22T11:43:00.971Z,48.31
2018-07-22T11:45:29.804Z,51.39
2018-07-22T11:47:58.531Z,50.85
2018-07-22T11:50:27.989Z,50.41
2018-07-22T11:52:56.608Z,50.46
2018-07-22T11:55:25.278Z,50.40
2018-07-22T11:57:54.122Z,49.63
2018-07-22T12:00:22.946Z,49.17
2018-07-22T12:02:51.678Z,49.68
2018-07-22T12:05:20.404Z,50.07
2018-07-22T12:07:49.107Z,49.86
2018-07-22T12:10:17.798Z,50.30
2018-07-22T12:12:46.511Z,51.51
2018-07-22T12:15:15.225Z,52.00
2018-07-22T12:17:44.495Z,51.42
2018-07-22T12:20:13.218Z,51.94
2018-07-22T12:22:41.962Z,51.31
2018-07-22T12:25:10.715Z,51.59
2018-07-22T12:27:39.470Z,52.44
2018-07-22T12:30:08.318Z,52.93
2018-07-22T12:32:37.110Z,52.73
2018-07-22T12:35:05.913Z,52.18
2018-07-22T12:37:34.631Z,55.71
2018-07-22T12:40:03.394Z,56.15
2018-07-22T12:42:32.126Z,57.81
2018-07-22T12:45:00.951Z,58.23
2018-07-22T12:47:29.797Z,57.49
2018-07-22T12:49:58.449Z,57.60
2018-07-22T12:52:27.136Z,56.71
2018-07-22T12:54:55.763Z,56.36
2018-07-22T12:57:24.444Z,56.03
2018-07-22T12:59:53.163Z,57.30
2018-07-22T13:02:21.902Z,55.20
2018-07-22T13:04:51.217Z,54.24
2018-07-22T13:07:19.942Z,52.93
2018-07-22T13:09:48.730Z,53.24
2018-07-22T13:12:17.435Z,52.22
2018-07-22T13:14:47.141Z,53.23
2018-07-22T13:17:15.855Z,52.17
2018-07-22T13:19:45.033Z,52.67
2018-07-22T13:22:13.788Z,52.16
2018-07-22T13:24:42.555Z,52.35
2018-07-22T13:27:12.015Z,52.35
2018-07-22T13:29:40.754Z,54.46
2018-07-22T13:32:09.603Z,53.99
2018-07-22T13:34:38.300Z,54.64
2018-07-22T13:37:07.503Z,55.07
2018-07-22T13:39:36.188Z,54.64
2018-07-22T13:42:04.841Z,56.21
2018-07-22T13:44:33.617Z,54.48
2018-07-22T13:47:02.313Z,54.52
2018-07-22T13:49:31.012Z,52.68
2018-07-22T13:51:59.796Z,52.21
2018-07-22T13:54:28.628Z,55.11
2018-07-22T13:56:57.377Z,54.60
2018-07-22T13:59:26.070Z,55.79
2018-07-22T14:01:54.851Z,56.35
2018-07-22T14:04:23.549Z,58.94
2018-07-22T14:06:52.266Z,61.23
2018-07-22T14:09:21.123Z,62.79
2018-07-22T14:11:49.920Z,63.96
2018-07-22T14:14:18.601Z,64.71
2018-07-22T14:16:47.889Z,67.16
2018-07-22T14:19:16.558Z,68.17
2018-07-22T14:21:45.274Z,69.72
2018-07-22T14:24:13.994Z,68.99
2018-07-22T14:26:42.751Z,69.99
2018-07-22T14:29:11.510Z,71.56
2018-07-22T14:31:40.332Z,72.43
2018-07-22T14:34:09.247Z,72.26
2018-07-22T14:36:38.164Z,74.26
2018-07-22T14:39:10.088Z,76.11
2018-07-22T14:41:38.843Z,75.98
2018-07-22T14:44:07.515Z,74.41
2018-07-22T14:46:36.593Z,75.75
2018-07-22T14:49:06.053Z,76.09
2018-07-22T14:51:34.706Z,76.37
2018-07-22T14:54:03.367Z,75.45
2018-07-22T14:56:32.217Z,75.55
2018-07-22T14:59:00.849Z,75.54
2018-07-22T15:01:30.058Z,75.75
2018-07-22T15:03:58.763Z,73.72
2018-07-22T15:06:27.477Z,73.67
2018-07-22T15:08:56.203Z,73.49
2018-07-22T15:11:24.942Z,73.38
2018-07-22T15:13:53.641Z,73.07
2018-07-22T15:16:22.315Z,73.23
2018-07-22T15:18:51.271Z,73.57
2018-07-22T15:21:19.968Z,72.59
2018-07-22T15:23:48.689Z,73.30
2018-07-22T15:26:17.425Z,73.29
2018-07-22T15:28:46.190Z,73.23
2018-07-22T15:31:19.892Z,71.86
2018-07-22T15:33:48.658Z,73.00
2018-07-22T15:36:17.736Z,71.27
2018-07-22T15:38:46.994Z,69.70
2018-07-22T15:41:15.720Z,68.76
2018-07-22T15:43:44.407Z,69.89
2018-07-22T15:46:13.074Z,69.26
2018-07-22T15:48:41.820Z,68.29
2018-07-22T15:51:10.449Z,68.54
2018-07-22T15:53:40.106Z,67.93
2018-07-22T15:56:08.782Z,67.72
2018-07-22T15:58:37.396Z,67.40
2018-07-22T16:01:06.253Z,67.45
2018-07-22T16:03:35.930Z,66.69
2018-07-22T16:06:04.653Z,66.77
2018-07-22T16:08:33.306Z,66.37
2018-07-22T16:11:01.975Z,65.95
2018-07-22T16:13:30.743Z,64.83
2018-07-22T16:15:59.402Z,63.11
2018-07-22T16:18:28.102Z,63.69
2018-07-22T16:20:56.819Z,64.42
2018-07-22T16:23:25.468Z,64.22
2018-07-22T16:25:54.146Z,64.63
2018-07-22T16:28:23.150Z,64.81
2018-07-22T16:30:51.853Z,65.26
2018-07-22T16:33:24.593Z,64.82
2018-07-22T16:35:53.370Z,65.42
2018-07-22T16:38:22.080Z,65.45
2018-07-22T16:40:51.441Z,64.72
2018-07-22T16:43:20.560Z,66.65
2018-07-22T16:45:50.160Z,66.01
2018-07-22T16:48:20.043Z,65.91
2018-07-22T16:50:50.488Z,64.62
2018-07-22T16:53:19.186Z,65.31
2018-07-22T16:55:47.870Z,66.69
2018-07-22T16:58:16.500Z,66.82
2018-07-22T17:00:45.929Z,68.02
2018-07-22T17:03:14.657Z,68.11
2018-07-22T17:05:44.649Z,69.00
2018-07-22T17:08:13.341Z,69.70
2018-07-22T17:10:42.072Z,70.28
2018-07-22T17:13:10.792Z,70.53
2018-07-22T17:15:40.585Z,71.64
2018-07-22T17:18:09.856Z,72.17
2018-07-22T17:20:39.926Z,72.71
2018-07-22T17:23:09.507Z,72.76
2018-07-22T17:25:39.834Z,73.45
2018-07-22T17:28:09.054Z,73.73
2018-07-22T17:30:38.648Z,74.48
2018-07-22T17:33:07.895Z,74.80
2018-07-22T17:35:36.981Z,75.14
2018-07-22T17:38:09.969Z,75.54
2018-07-22T17:40:40.650Z,76.36
2018-07-22T17:43:10.592Z,76.71
2018-07-22T17:45:39.442Z,77.03
2018-07-22T17:48:09.648Z,77.76
2018-07-22T17:50:39.638Z,78.17
2018-07-22T17:53:09.551Z,78.90
2018-07-22T17:55:38.874Z,78.50
2018-07-22T17:58:07.879Z,79.04
2018-07-22T18:00:39.845Z,79.48
2018-07-22T18:03:26.983Z,79.45
2018-07-22T18:05:56.235Z,80.34
2018-07-22T18:08:25.617Z,79.91
2018-07-22T18:10:54.880Z,80.45
2018-07-22T18:13:23.708Z,81.59
2018-07-22T18:15:54.161Z,81.77
2018-07-22T18:18:23.089Z,83.56
2018-07-22T18:20:52.191Z,83.75
2018-07-22T18:23:21.589Z,84.63
2018-07-22T18:25:50.724Z,84.81
2018-07-22T18:28:20.292Z,85.61
2018-07-22T18:30:49.333Z,85.18
2018-07-22T18:33:18.446Z,84.70
2018-07-22T18:35:49.127Z,84.92
2018-07-22T18:38:19.607Z,83.93
2018-07-22T18:40:50.538Z,84.45
2018-07-22T18:43:22.725Z,85.30
2018-07-22T18:45:51.615Z,84.65
2018-07-22T18:48:20.502Z,84.69
2018-07-22T18:50:49.773Z,85.10
2018-07-22T18:53:19.005Z,85.23
2018-07-22T18:55:47.999Z,85.01
2018-07-22T18:58:18.711Z,83.71
2018-07-22T19:00:47.792Z,84.86
2018-07-22T19:03:16.792Z,83.80
2018-07-22T19:05:45.797Z,83.39
2018-07-22T19:08:14.739Z,82.58
2018-07-22T19:10:43.781Z,83.99
2018-07-22T19:13:12.831Z,83.57
2018-07-22T19:15:41.909Z,83.62
2018-07-22T19:18:11.170Z,83.70
2018-07-22T19:20:40.282Z,83.46
2018-07-22T19:23:10.052Z,83.09
2018-07-22T19:25:39.766Z,83.65
2018-07-22T19:28:09.012Z,83.64
2018-07-22T19:30:38.317Z,83.62
2018-07-22T19:33:07.436Z,83.78
2018-07-22T19:35:36.395Z,82.42
2018-07-22T19:38:05.390Z,83.24
2018-07-22T19:40:34.357Z,82.56
2018-07-22T19:43:03.622Z,83.54
2018-07-22T19:45:32.824Z,84.33
2018-07-22T19:48:01.846Z,84.01
2018-07-22T19:50:30.849Z,84.63
2018-07-22T19:52:59.806Z,85.01
2018-07-22T19:55:28.840Z,85.10
2018-07-22T19:57:57.971Z,85.40
2018-07-22T20:00:27.589Z,86.18
2018-07-22T20:02:57.496Z,85.45
2018-07-22T20:05:26.661Z,85.27
2018-07-22T20:07:56.412Z,86.64
2018-07-22T20:10:26.760Z,85.93
2018-07-22T20:12:55.955Z,87.20
2018-07-22T20:15:25.222Z,87.93
2018-07-22T20:17:54.268Z,87.56
2018-07-22T20:20:23.416Z,88.21
2018-07-22T20:22:52.431Z,88.24
2018-07-22T20:25:21.333Z,88.78
2018-07-22T20:27:50.092Z,88.42
2018-07-22T20:30:20.431Z,88.90
2018-07-22T20:32:49.065Z,88.39
2018-07-22T20:35:18.038Z,88.82
2018-07-22T20:37:46.768Z,88.45
2018-07-22T20:40:17.609Z,88.55
2018-07-22T20:42:46.538Z,87.70
2018-07-22T20:45:15.411Z,87.16
2018-07-22T20:47:46.943Z,87.59
2018-07-22T20:50:16.569Z,86.75
2018-07-22T20:52:47.589Z,86.47
2018-07-22T20:55:16.440Z,85.47
2018-07-22T20:57:45.305Z,86.07
2018-07-22T21:00:14.291Z,86.98
2018-07-22T21:02:43.161Z,86.27
2018-07-22T21:05:11.981Z,86.85
2018-07-22T21:07:40.686Z,85.81
2018-07-22T21:10:09.562Z,85.76
2018-07-22T21:13:21.714Z,85.50
2018-07-22T21:15:50.554Z,85.82
2018-07-22T21:18:20.643Z,85.19
2018-07-22T21:20:49.334Z,85.23
2018-07-22T21:23:17.975Z,85.63
2018-07-22T21:25:46.663Z,85.54
2018-07-22T21:28:16.342Z,84.64
2018-07-22T21:30:44.997Z,84.14
2018-07-22T21:33:13.649Z,85.01
2018-07-22T21:35:42.297Z,85.80
2018-07-22T21:38:11.005Z,86.03
2018-07-22T21:40:39.642Z,86.81
2018-07-22T21:43:08.432Z,86.84
2018-07-22T21:45:37.008Z,85.93
2018-07-22T21:48:05.668Z,85.80
2018-07-22T21:50:34.382Z,84.99
2018-07-22T21:53:03.030Z,85.26
2018-07-22T21:55:31.839Z,85.45
2018-07-22T21:58:00.469Z,85.75
2018-07-22T22:00:34.144Z,86.21
2018-07-22T22:03:03.853Z,85.39
2018-07-22T22:05:32.477Z,85.05
2018-07-22T22:08:01.091Z,84.68
2018-07-22T22:10:29.734Z,85.41
2018-07-22T22:12:58.562Z,85.91
2018-07-22T22:15:28.384Z,86.43
2018-07-22T22:17:58.337Z,86.41
2018-07-22T22:20:27.589Z,86.65
2018-07-22T22:22:56.446Z,87.16
2018-07-22T22:25:25.050Z,86.75
2018-07-22T22:27:53.694Z,87.23
2018-07-22T22:30:22.417Z,86.83
2018-07-22T22:32:51.006Z,87.53
2018-07-22T22:35:19.941Z,88.64
2018-07-22T22:37:49.313Z,88.30
2018-07-22T22:40:18.414Z,88.82
2018-07-22T22:42:47.613Z,88.85
2018-07-22T22:45:16.967Z,89.44
2018-07-22T22:47:45.650Z,89.47
2018-07-22T22:50:14.965Z,89.18
2018-07-22T22:52:43.758Z,88.06
2018-07-22T22:55:12.443Z,88.83
2018-07-22T22:59:49.902Z,88.99
2018-07-22T23:02:18.627Z,89.92
2018-07-22T23:04:47.375Z,89.90
2018-07-22T23:07:16.621Z,88.76
2018-07-22T23:09:45.368Z,89.29
2018-07-22T23:12:14.079Z,89.08
2018-07-22T23:14:42.684Z,89.22
2018-07-22T23:17:11.282Z,89.37
2018-07-22T23:19:39.870Z,89.89
2018-07-22T23:22:08.533Z,89.67
2018-07-22T23:24:37.158Z,89.90
2018-07-22T23:27:05.789Z,89.61
2018-07-22T23:29:34.437Z,88.63
2018-07-22T23:32:03.043Z,87.63
2018-07-22T23:34:31.673Z,89.19
2018-07-22T23:37:00.306Z,88.19
2018-07-22T23:39:28.965Z,88.09
2018-07-22T23:41:57.646Z,88.10
2018-07-22T23:44:26.426Z,88.08
2018-07-22T23:46:55.002Z,87.30
2018-07-22T23:49:23.584Z,87.15
2018-07-22T23:51:52.214Z,86.43
2018-07-22T23:54:21.016Z,86.17
2018-07-22T23:56:49.641Z,86.57
2018-07-22T23:59:18.269Z,87.15
